sensor_id;sensor_type;location;lat;lon;timestamp;temperature;humidity
17671;DHT22;8954;48.694;8.940;2023-07-28T06:18:13;16.90;99.90
17671;DHT22;8954;48.694;8.940;2023-07-28T06:20:43;16.90;99.90
17671;DHT22;8954;48.694;8.940;2023-07-28T06:23:09;16.90;99.90
17671;DHT22;8954;48.694;8.940;2023-07-28T06:25:34;17.10;99.90
17671;DHT22;8954;48.694;8.940;2023-07-28T06:28:00;17.30;99.90
17671;DHT22;8954;48.694;8.940;2023-07-28T06:30:25;17.30;99.90
17671;DHT22;8954;48.694;8.940;2023-07-28T06:32:51;17.40;99.90
17671;DHT22;8954;48.694;8.940;2023-07-28T06:35:17;17.40;99.90
17671;DHT22;8954;48.694;8.940;2023-07-28T06:37:42;17.40;99.90
17671;DHT22;8954;48.694;8.940;2023-07-28T06:40:08;17.50;99.90
17671;DHT22;8954;48.694;8.940;2023-07-28T06:42:35;17.40;99.90
17671;DHT22;8954;48.694;8.940;2023-07-28T06:45:02;17.50;99.90
17671;DHT22;8954;48.694;8.940;2023-07-28T06:47:28;17.60;99.90
17671;DHT22;8954;48.694;8.940;2023-07-28T06:49:54;17.80;99.90
17671;DHT22;8954;48.694;8.940;2023-07-28T06:52:20;17.80;99.90
17671;DHT22;8954;48.694;8.940;2023-07-28T06:54:45;18.10;99.90
17671;DHT22;8954;48.694;8.940;2023-07-28T06:57:12;18.30;99.90
17671;DHT22;8954;48.694;8.940;2023-07-28T06:59:38;18.50;99.90
17671;DHT22;8954;48.694;8.940;2023-07-28T07:02:04;18.60;99.90
17671;DHT22;8954;48.694;8.940;2023-07-28T07:04:30;18.60;99.90
17671;DHT22;8954;48.694;8.940;2023-07-28T07:06:58;18.70;99.90
17671;DHT22;8954;48.694;8.940;2023-07-28T07:09:23;18.80;99.90
17671;DHT22;8954;48.694;8.940;2023-07-28T07:11:49;19.00;99.90
17671;DHT22;8954;48.694;8.940;2023-07-28T07:14:16;19.20;99.90
17671;DHT22;8954;48.694;8.940;2023-07-28T07:16:41;19.40;99.90
17671;DHT22;8954;48.694;8.940;2023-07-28T07:19:07;19.40;99.90
17671;DHT22;8954;48.694;8.940;2023-07-28T07:21:32;19.40;99.90
17671;DHT22;8954;48.694;8.940;2023-07-28T07:23:58;19.70;99.90
17671;DHT22;8954;48.694;8.940;2023-07-28T07:26:23;20.10;99.90
17671;DHT22;8954;48.694;8.940;2023-07-28T07:28:49;20.50;99.90
17671;DHT22;8954;48.694;8.940;2023-07-28T07:34:37;20.80;99.90
17671;DHT22;8954;48.694;8.940;2023-07-28T07:37:04;21.00;99.90
17671;DHT22;8954;48.694;8.940;2023-07-28T07:39:29;21.20;99.90
17671;DHT22;8954;48.694;8.940;2023-07-28T07:41:55;21.30;99.90
17671;DHT22;8954;48.694;8.940;2023-07-28T07:44:20;21.30;99.90
17671;DHT22;8954;48.694;8.940;2023-07-28T07:46:46;21.20;99.90
17671;DHT22;8954;48.694;8.940;2023-07-28T07:49:11;21.20;99.90
17671;DHT22;8954;48.694;8.940;2023-07-28T07:51:37;21.30;99.90
17671;DHT22;8954;48.694;8.940;2023-07-28T07:54:02;21.40;99.90
17671;DHT22;8954;48.694;8.940;2023-07-28T07:56:28;21.50;99.90
17671;DHT22;8954;48.694;8.940;2023-07-28T07:58:53;21.50;99.90
17671;DHT22;8954;48.694;8.940;2023-07-28T08:04:41;21.50;99.90
17671;DHT22;8954;48.694;8.940;2023-07-28T08:07:07;21.80;99.90
17671;DHT22;8954;48.694;8.940;2023-07-28T08:09:32;22.20;99.90
17671;DHT22;8954;48.694;8.940;2023-07-28T08:12:00;22.40;99.90
17671;DHT22;8954;48.694;8.940;2023-07-28T08:14:25;22.60;99.90
17671;DHT22;8954;48.694;8.940;2023-07-28T08:16:51;22.90;99.90
17671;DHT22;8954;48.694;8.940;2023-07-28T08:19:16;23.30;99.90
17671;DHT22;8954;48.694;8.940;2023-07-28T08:21:42;23.10;99.90
17671;DHT22;8954;48.694;8.940;2023-07-28T08:24:08;23.30;99.90
17671;DHT22;8954;48.694;8.940;2023-07-28T08:26:33;23.20;99.90
17671;DHT22;8954;48.694;8.940;2023-07-28T08:28:59;23.10;99.90
17671;DHT22;8954;48.694;8.940;2023-07-28T08:31:24;23.20;99.90
17671;DHT22;8954;48.694;8.940;2023-07-28T08:33:50;23.10;99.90
17671;DHT22;8954;48.694;8.940;2023-07-28T08:36:16;23.20;99.90
17671;DHT22;8954;48.694;8.940;2023-07-28T08:38:41;23.40;99.90
17671;DHT22;8954;48.694;8.940;2023-07-28T08:41:07;23.40;99.90
17671;DHT22;8954;48.694;8.940;2023-07-28T08:43:32;23.80;99.90
17671;DHT22;8954;48.694;8.940;2023-07-28T08:45:58;24.30;99.90
17671;DHT22;8954;48.694;8.940;2023-07-28T08:48:24;24.60;99.90
17671;DHT22;8954;48.694;8.940;2023-07-28T08:50:50;24.60;99.90
17671;DHT22;8954;48.694;8.940;2023-07-28T08:53:17;25.00;99.90
17671;DHT22;8954;48.694;8.940;2023-07-28T08:55:42;25.00;99.90
17671;DHT22;8954;48.694;8.940;2023-07-28T08:58:18;25.00;99.90
17671;DHT22;8954;48.694;8.940;2023-07-28T09:00:48;24.80;99.90
17671;DHT22;8954;48.694;8.940;2023-07-28T09:03:19;24.50;99.90
17671;DHT22;8954;48.694;8.940;2023-07-28T09:05:46;24.40;99.90
17671;DHT22;8954;48.694;8.940;2023-07-28T09:08:12;24.30;99.90
17671;DHT22;8954;48.694;8.940;2023-07-28T09:10:46;24.10;99.90
17671;DHT22;8954;48.694;8.940;2023-07-28T09:13:13;24.20;99.90
17671;DHT22;8954;48.694;8.940;2023-07-28T09:15:39;24.20;99.90
17671;DHT22;8954;48.694;8.940;2023-07-28T09:18:08;24.30;99.90
17671;DHT22;8954;48.694;8.940;2023-07-28T09:20:39;24.40;99.90
17671;DHT22;8954;48.694;8.940;2023-07-28T09:23:05;24.10;99.90
17671;DHT22;8954;48.694;8.940;2023-07-28T09:25:33;24.20;99.90
17671;DHT22;8954;48.694;8.940;2023-07-28T09:27:59;24.30;99.90
17671;DHT22;8954;48.694;8.940;2023-07-28T09:30:25;24.80;99.90
17671;DHT22;8954;48.694;8.940;2023-07-28T09:32:54;25.20;99.90
17671;DHT22;8954;48.694;8.940;2023-07-28T09:35:21;25.40;99.90
17671;DHT22;8954;48.694;8.940;2023-07-28T09:37:48;25.80;99.90
17671;DHT22;8954;48.694;8.940;2023-07-28T09:40:17;25.80;99.90
17671;DHT22;8954;48.694;8.940;2023-07-28T09:42:44;26.00;99.90
17671;DHT22;8954;48.694;8.940;2023-07-28T09:45:15;25.50;99.90
17671;DHT22;8954;48.694;8.940;2023-07-28T09:47:44;25.40;99.90
17671;DHT22;8954;48.694;8.940;2023-07-28T09:50:10;25.10;99.90
17671;DHT22;8954;48.694;8.940;2023-07-28T09:53:02;25.10;99.90
17671;DHT22;8954;48.694;8.940;2023-07-28T09:55:28;25.20;99.90
17671;DHT22;8954;48.694;8.940;2023-07-28T09:57:56;25.20;99.90
17671;DHT22;8954;48.694;8.940;2023-07-28T10:00:23;25.20;99.90
17671;DHT22;8954;48.694;8.940;2023-07-28T10:02:50;25.40;99.90
17671;DHT22;8954;48.694;8.940;2023-07-28T10:05:16;25.80;99.90
17671;DHT22;8954;48.694;8.940;2023-07-28T10:07:43;26.10;99.90
17671;DHT22;8954;48.694;8.940;2023-07-28T10:10:11;26.00;99.90
17671;DHT22;8954;48.694;8.940;2023-07-28T10:12:48;26.20;99.90
17671;DHT22;8954;48.694;8.940;2023-07-28T10:15:16;25.90;99.90
17671;DHT22;8954;48.694;8.940;2023-07-28T10:17:50;26.00;99.90
17671;DHT22;8954;48.694;8.940;2023-07-28T10:20:37;25.90;99.90
17671;DHT22;8954;48.694;8.940;2023-07-28T10:23:17;25.90;99.90
17671;DHT22;8954;48.694;8.940;2023-07-28T10:25:45;26.20;99.90
17671;DHT22;8954;48.694;8.940;2023-07-28T10:28:33;26.50;99.90
17671;DHT22;8954;48.694;8.940;2023-07-28T10:31:01;26.50;99.90
17671;DHT22;8954;48.694;8.940;2023-07-28T10:33:35;26.60;99.90
17671;DHT22;8954;48.694;8.940;2023-07-28T10:38:36;26.10;99.90
17671;DHT22;8954;48.694;8.940;2023-07-28T10:41:16;26.10;99.90
17671;DHT22;8954;48.694;8.940;2023-07-28T10:43:44;25.70;99.90
17671;DHT22;8954;48.694;8.940;2023-07-28T10:46:11;25.40;99.90
17671;DHT22;8954;48.694;8.940;2023-07-28T10:48:44;25.30;99.90
17671;DHT22;8954;48.694;8.940;2023-07-28T10:51:11;24.90;99.90
17671;DHT22;8954;48.694;8.940;2023-07-28T10:53:37;24.80;99.90
17671;DHT22;8954;48.694;8.940;2023-07-28T10:56:03;25.00;99.90
17671;DHT22;8954;48.694;8.940;2023-07-28T10:58:31;25.10;99.90
17671;DHT22;8954;48.694;8.940;2023-07-28T11:00:57;25.10;99.90
17671;DHT22;8954;48.694;8.940;2023-07-28T11:03:23;25.20;99.90
17671;DHT22;8954;48.694;8.940;2023-07-28T11:05:49;25.00;99.90
17671;DHT22;8954;48.694;8.940;2023-07-28T11:08:16;25.10;99.90
17671;DHT22;8954;48.694;8.940;2023-07-28T11:10:42;25.20;99.90
17671;DHT22;8954;48.694;8.940;2023-07-28T11:13:07;25.40;99.90
17671;DHT22;8954;48.694;8.940;2023-07-28T11:15:33;25.60;99.90
17671;DHT22;8954;48.694;8.940;2023-07-28T11:17:59;26.10;99.90
17671;DHT22;8954;48.694;8.940;2023-07-28T11:20:26;25.90;99.90
17671;DHT22;8954;48.694;8.940;2023-07-28T11:23:03;26.10;99.90
